Time,TemperatureF,DewpointF,PressureIn,WindDirection,WindDirectionDegrees,WindSpeedMPH,WindSpeedGustMPH,Humidity,HourlyPrecipIn,Conditions,Clouds,dailyrainin,SoftwareType,DateUTC
2013-01-14 00:04:00,65.0,62.0,30.15,East,90,2.0,3.0,90,-99.99,,,-99.99,,2013-01-14 05:04:00,
2013-01-14 00:12:00,63.0,61.0,30.15,ENE,64,1.0,2.0,90,-99.99,,,-99.99,,2013-01-14 05:12:00,
2013-01-14 00:22:00,63.0,61.0,30.15,ENE,64,1.0,2.0,90,-99.99,,,-99.99,,2013-01-14 05:22:00,
2013-01-14 00:33:00,63.0,61.0,30.15,ENE,64,1.0,2.0,90,-99.99,,,-99.99,,2013-01-14 05:33:00,
2013-01-14 00:43:00,61.0,59.0,30.15,NE,36,1.0,2.0,91,-99.99,,,-99.99,,2013-01-14 05:43:00,
2013-01-14 00:53:00,61.0,59.0,30.15,NE,36,1.0,2.0,91,-99.99,,,-99.99,,2013-01-14 05:53:00,
2013-01-14 01:03:00,61.0,59.0,30.15,East,85,2.0,3.0,92,-99.99,,,-99.99,,2013-01-14 06:03:00,
2013-01-14 01:12:00,61.0,59.0,30.15,East,85,2.0,3.0,92,-99.99,,,-99.99,,2013-01-14 06:12:00,
2013-01-14 01:23:00,60.0,57.0,30.15,ESE,105,3.0,4.0,92,-99.99,,,-99.99,,2013-01-14 06:23:00,
2013-01-14 01:33:00,60.0,58.0,30.15,East,98,3.0,4.0,93,-99.99,,,-99.99,,2013-01-14 06:33:00,
2013-01-14 01:43:00,60.0,58.0,30.15,East,98,3.0,4.0,93,-99.99,,,-99.99,,2013-01-14 06:43:00,
2013-01-14 01:53:00,62.0,60.0,30.15,East,96,2.0,3.0,93,-99.99,,,-99.99,,2013-01-14 06:53:00,
2013-01-14 02:02:00,62.0,60.0,30.16,ENE,77,2.0,2.0,93,-99.99,,,-99.99,,2013-01-14 07:02:00,
2013-01-14 02:12:00,62.0,60.0,30.16,ENE,77,2.0,2.0,93,-99.99,,,-99.99,,2013-01-14 07:12:00,
2013-01-14 02:23:00,59.0,57.0,30.16,NE,40,1.0,2.0,93,-99.99,,,-99.99,,2013-01-14 07:23:00,
2013-01-14 02:33:00,59.0,57.0,30.16,NNE,17,2.0,2.0,93,-99.99,,,-99.99,,2013-01-14 07:33:00,
2013-01-14 02:43:00,59.0,57.0,30.16,NNE,17,2.0,2.0,93,-99.99,,,-99.99,,2013-01-14 07:43:00,
2013-01-14 02:53:00,59.0,57.0,30.16,NNE,28,2.0,2.0,93,-99.99,,,-99.99,,2013-01-14 07:53:00,
2013-01-14 03:02:00,58.0,56.0,30.16,NE,51,2.0,2.0,93,-99.99,,,-99.99,,2013-01-14 08:02:00,
2013-01-14 03:12:00,58.0,56.0,30.16,NE,51,2.0,2.0,93,-99.99,,,-99.99,,2013-01-14 08:12:00,
2013-01-14 03:22:00,59.0,57.0,30.16,ENE,78,2.0,3.0,94,-99.99,,,-99.99,,2013-01-14 08:22:00,
2013-01-14 03:33:00,59.0,57.0,30.16,ENE,78,2.0,3.0,94,-99.99,,,-99.99,,2013-01-14 08:33:00,
2013-01-14 03:43:00,59.0,57.0,30.16,East,86,2.0,3.0,94,-99.99,,,-99.99,,2013-01-14 08:43:00,
2013-01-14 03:53:00,58.0,56.0,30.16,NE,36,1.0,2.0,93,-99.99,,,-99.99,,2013-01-14 08:53:00,
2013-01-14 04:03:00,57.0,55.0,30.16,NW,317,2.0,4.0,94,-99.99,,,-99.99,,2013-01-14 09:03:00,
2013-01-14 04:12:00,57.0,55.0,30.16,NW,317,2.0,4.0,94,-99.99,,,-99.99,,2013-01-14 09:12:00,
2013-01-14 04:23:00,56.0,55.0,30.16,NW,323,3.0,4.0,94,-99.99,,,-99.99,,2013-01-14 09:23:00,
2013-01-14 04:33:00,57.0,55.0,30.16,East,94,3.0,4.0,94,-99.99,,,-99.99,,2013-01-14 09:33:00,
2013-01-14 04:43:00,57.0,55.0,30.16,East,94,3.0,4.0,94,-99.99,,,-99.99,,2013-01-14 09:43:00,
2013-01-14 04:53:00,56.0,55.0,30.15,ENE,60,3.0,4.0,94,-99.99,,,-99.99,,2013-01-14 09:53:00,
2013-01-14 05:02:00,55.0,54.0,30.15,NE,55,2.0,3.0,94,-99.99,,,-99.99,,2013-01-14 10:02:00,
2013-01-14 05:12:00,55.0,54.0,30.15,NE,55,2.0,3.0,94,-99.99,,,-99.99,,2013-01-14 10:12:00,
2013-01-14 05:23:00,55.0,53.0,30.15,ESE,111,1.0,2.0,94,-99.99,,,-99.99,,2013-01-14 10:23:00,
2013-01-14 05:32:00,54.0,53.0,30.15,WSW,251,2.0,3.0,94,-99.99,,,-99.99,,2013-01-14 10:32:00,
2013-01-14 05:43:00,54.0,53.0,30.15,WSW,251,2.0,3.0,94,-99.99,,,-99.99,,2013-01-14 10:43:00,
2013-01-14 05:53:00,54.0,53.0,30.15,West,278,2.0,3.0,94,-99.99,,,-99.99,,2013-01-14 10:53:00,
2013-01-14 06:02:00,55.0,53.0,30.15,ESE,116,1.0,2.0,94,-99.99,,,-99.99,,2013-01-14 11:02:00,
2013-01-14 06:12:00,55.0,53.0,30.15,ESE,116,1.0,2.0,94,-99.99,,,-99.99,,2013-01-14 11:12:00,
2013-01-14 06:22:00,54.0,53.0,30.15,ESE,117,1.0,3.0,94,-99.99,,,-99.99,,2013-01-14 11:22:00,
2013-01-14 06:33:00,54.0,52.0,30.15,ESE,117,3.0,3.0,94,-99.99,,,-99.99,,2013-01-14 11:33:00,
2013-01-14 06:43:00,54.0,52.0,30.15,ESE,114,3.0,4.0,94,-99.99,,,-99.99,,2013-01-14 11:43:00,
2013-01-14 06:53:00,54.0,52.0,30.15,ESE,104,3.0,4.0,94,-99.99,,,-99.99,,2013-01-14 11:53:00,
2013-01-14 07:03:00,54.0,52.0,30.15,ESE,104,3.0,4.0,94,-99.99,,,-99.99,,2013-01-14 12:03:00,
2013-01-14 07:12:00,54.0,52.0,30.15,ESE,113,3.0,4.0,94,-99.99,,,-99.99,,2013-01-14 12:12:00,
2013-01-14 07:23:00,54.0,52.0,30.15,ESE,113,3.0,4.0,94,-99.99,,,-99.99,,2013-01-14 12:23:00,
2013-01-14 07:33:00,55.0,53.0,30.15,ESE,116,3.0,4.0,94,-99.99,,,-99.99,,2013-01-14 12:33:00,
2013-01-14 07:43:00,55.0,53.0,30.15,ESE,116,3.0,4.0,94,-99.99,,,-99.99,,2013-01-14 12:43:00,
2013-01-14 07:53:00,55.0,54.0,30.15,ESE,104,2.0,3.0,94,-99.99,,,-99.99,,2013-01-14 12:53:00,
2013-01-14 08:03:00,54.0,52.0,30.16,South,171,1.0,3.0,94,-99.99,,,-99.99,,2013-01-14 13:03:00,
2013-01-14 08:13:00,54.0,52.0,30.16,South,171,1.0,3.0,94,-99.99,,,-99.99,,2013-01-14 13:13:00,
2013-01-14 08:23:00,54.0,53.0,30.17,NW,320,2.0,2.0,94,-99.99,,,-99.99,,2013-01-14 13:23:00,
2013-01-14 08:33:00,55.0,54.0,30.17,SE,140,1.0,2.0,94,-99.99,,,-99.99,,2013-01-14 13:33:00,
2013-01-14 08:43:00,55.0,54.0,30.17,SE,140,1.0,2.0,94,-99.99,,,-99.99,,2013-01-14 13:43:00,
2013-01-14 08:53:00,57.0,56.0,30.17,NNE,24,1.0,2.0,94,-99.99,,,-99.99,,2013-01-14 13:53:00,
2013-01-14 09:03:00,60.0,59.0,30.18,ENE,62,1.0,1.0,94,-99.99,,,-99.99,,2013-01-14 14:03:00,
2013-01-14 09:13:00,60.0,59.0,30.18,ENE,62,1.0,1.0,94,-99.99,,,-99.99,,2013-01-14 14:13:00,
2013-01-14 09:23:00,63.0,61.0,30.19,WSW,258,1.0,2.0,94,-99.99,,,-99.99,,2013-01-14 14:23:00,
2013-01-14 09:33:00,63.0,61.0,30.19,WSW,258,1.0,2.0,94,-99.99,,,-99.99,,2013-01-14 14:33:00,
2013-01-14 09:43:00,64.0,62.0,30.19,WSW,254,1.0,1.0,94,-99.99,,,-99.99,,2013-01-14 14:43:00,
2013-01-14 09:53:00,66.0,65.0,30.20,South,169,1.0,3.0,94,-99.99,,,-99.99,,2013-01-14 14:53:00,
2013-01-14 10:03:00,67.0,66.0,30.20,SE,125,3.0,5.0,94,-99.99,,,-99.99,,2013-01-14 15:03:00,
2013-01-14 10:12:00,67.0,66.0,30.20,SE,125,3.0,5.0,94,-99.99,,,-99.99,,2013-01-14 15:12:00,
2013-01-14 10:23:00,70.0,67.0,30.21,SE,133,3.0,7.0,89,-99.99,,,-99.99,,2013-01-14 15:23:00,
2013-01-14 10:33:00,72.0,66.0,30.22,SE,133,4.0,8.0,79,-99.99,,,-99.99,,2013-01-14 15:33:00,
2013-01-14 10:43:00,72.0,66.0,30.22,SE,133,4.0,8.0,79,-99.99,,,-99.99,,2013-01-14 15:43:00,
2013-01-14 10:53:00,74.0,65.0,30.21,SSE,155,6.0,11.0,74,-99.99,,,-99.99,,2013-01-14 15:53:00,
2013-01-14 11:03:00,75.0,64.0,30.21,SE,132,8.0,12.0,68,-99.99,,,-99.99,,2013-01-14 16:03:00,
2013-01-14 11:13:00,75.0,64.0,30.21,SE,132,8.0,12.0,68,-99.99,,,-99.99,,2013-01-14 16:13:00,
2013-01-14 11:23:00,76.0,64.0,30.20,SE,143,11.0,16.0,66,-99.99,,,-99.99,,2013-01-14 16:23:00,
2013-01-14 11:33:00,76.0,64.0,30.20,SE,143,11.0,16.0,66,-99.99,,,-99.99,,2013-01-14 16:33:00,
2013-01-14 11:43:00,76.0,63.0,30.20,SE,146,8.0,11.0,63,-99.99,,,-99.99,,2013-01-14 16:43:00,
2013-01-14 11:53:00,76.0,62.0,30.20,SE,136,7.0,10.0,61,-99.99,,,-99.99,,2013-01-14 16:53:00,
2013-01-14 12:03:00,77.0,62.0,30.19,SE,129,7.0,10.0,58,-99.99,,,-99.99,,2013-01-14 17:03:00,
2013-01-14 12:12:00,77.0,62.0,30.19,SE,129,7.0,10.0,58,-99.99,,,-99.99,,2013-01-14 17:12:00,
2013-01-14 12:23:00,78.0,61.0,30.19,SE,145,7.0,13.0,55,-99.99,,,-99.99,,2013-01-14 17:23:00,
2013-01-14 12:33:00,78.0,61.0,30.19,SE,145,7.0,13.0,55,-99.99,,,-99.99,,2013-01-14 17:33:00,
2013-01-14 12:43:00,78.0,61.0,30.18,SE,129,8.0,12.0,55,-99.99,,,-99.99,,2013-01-14 17:43:00,
2013-01-14 12:54:00,79.0,61.0,30.17,SE,134,9.0,14.0,54,-99.99,,,-99.99,,2013-01-14 17:54:00,
2013-01-14 13:03:00,79.0,61.0,30.17,SE,132,8.0,15.0,54,-99.99,,,-99.99,,2013-01-14 18:03:00,
2013-01-14 13:13:00,79.0,61.0,30.17,SE,132,8.0,15.0,54,-99.99,,,-99.99,,2013-01-14 18:13:00,
2013-01-14 13:23:00,79.0,61.0,30.17,SE,134,8.0,12.0,53,-99.99,,,-99.99,,2013-01-14 18:23:00,
2013-01-14 13:33:00,79.0,61.0,30.16,SSE,147,7.0,12.0,54,-99.99,,,-99.99,,2013-01-14 18:33:00,
2013-01-14 13:43:00,79.0,61.0,30.16,SSE,147,7.0,12.0,54,-99.99,,,-99.99,,2013-01-14 18:43:00,
2013-01-14 13:53:00,79.0,61.0,30.16,SE,146,7.0,11.0,53,-99.99,,,-99.99,,2013-01-14 18:53:00,
2013-01-14 14:03:00,79.0,61.0,30.16,SE,133,7.0,12.0,54,-99.99,,,-99.99,,2013-01-14 19:03:00,
2013-01-14 14:13:00,79.0,61.0,30.16,SE,133,7.0,12.0,54,-99.99,,,-99.99,,2013-01-14 19:13:00,
2013-01-14 14:22:00,79.0,61.0,30.15,SE,127,6.0,12.0,54,-99.99,,,-99.99,,2013-01-14 19:22:00,
2013-01-14 14:33:00,79.0,61.0,30.15,ESE,117,4.0,8.0,55,-99.99,,,-99.99,,2013-01-14 19:33:00,
2013-01-14 14:43:00,79.0,61.0,30.15,ESE,117,4.0,8.0,55,-99.99,,,-99.99,,2013-01-14 19:43:00,
2013-01-14 14:53:00,79.0,61.0,30.15,SSE,167,5.0,9.0,54,-99.99,,,-99.99,,2013-01-14 19:53:00,
2013-01-14 15:04:00,79.0,61.0,30.15,SSE,159,6.0,10.0,53,-99.99,,,-99.99,,2013-01-14 20:04:00,
2013-01-14 15:13:00,79.0,61.0,30.15,SSE,159,6.0,10.0,53,-99.99,,,-99.99,,2013-01-14 20:13:00,
2013-01-14 15:23:00,80.0,61.0,30.15,SE,139,5.0,8.0,52,-99.99,,,-99.99,,2013-01-14 20:23:00,
2013-01-14 15:33:00,80.0,61.0,30.15,SE,139,5.0,8.0,52,-99.99,,,-99.99,,2013-01-14 20:33:00,
2013-01-14 15:43:00,78.0,61.0,30.15,SE,143,6.0,8.0,55,-99.99,,,-99.99,,2013-01-14 20:43:00,
2013-01-14 15:53:00,79.0,62.0,30.14,SSE,150,5.0,7.0,54,-99.99,,,-99.99,,2013-01-14 20:53:00,
2013-01-14 16:03:00,79.0,62.0,30.14,SSE,150,5.0,7.0,54,-99.99,,,-99.99,,2013-01-14 21:03:00,
2013-01-14 16:13:00,80.0,61.0,30.14,SE,145,7.0,10.0,52,-99.99,,,-99.99,,2013-01-14 21:13:00,
2013-01-14 16:23:00,80.0,61.0,30.14,SE,145,7.0,10.0,52,-99.99,,,-99.99,,2013-01-14 21:23:00,
2013-01-14 16:33:00,78.0,61.0,30.15,SSE,150,4.0,8.0,54,-99.99,,,-99.99,,2013-01-14 21:33:00,
2013-01-14 16:43:00,78.0,61.0,30.15,SSE,150,4.0,8.0,54,-99.99,,,-99.99,,2013-01-14 21:43:00,
2013-01-14 16:53:00,79.0,61.0,30.15,SE,134,6.0,9.0,53,-99.99,,,-99.99,,2013-01-14 21:53:00,
2013-01-14 17:03:00,79.0,61.0,30.15,SE,134,6.0,9.0,53,-99.99,,,-99.99,,2013-01-14 22:03:00,
2013-01-14 17:12:00,78.0,61.0,30.16,SE,133,5.0,8.0,56,-99.99,,,-99.99,,2013-01-14 22:12:00,
2013-01-14 17:23:00,78.0,61.0,30.16,SE,133,5.0,8.0,56,-99.99,,,-99.99,,2013-01-14 22:23:00,
2013-01-14 17:33:00,76.0,62.0,30.16,ESE,119,3.0,4.0,60,-99.99,,,-99.99,,2013-01-14 22:33:00,
2013-01-14 17:43:00,76.0,62.0,30.16,ESE,119,3.0,4.0,60,-99.99,,,-99.99,,2013-01-14 22:43:00,
2013-01-14 17:53:00,74.0,62.0,30.16,ESE,108,3.0,4.0,64,-99.99,,,-99.99,,2013-01-14 22:53:00,
2013-01-14 18:03:00,73.0,62.0,30.17,ESE,109,2.0,3.0,66,-99.99,,,-99.99,,2013-01-14 23:03:00,
2013-01-14 18:12:00,73.0,62.0,30.17,ESE,109,2.0,3.0,66,-99.99,,,-99.99,,2013-01-14 23:12:00,
2013-01-14 18:23:00,72.0,62.0,30.17,ESE,105,3.0,4.0,71,-99.99,,,-99.99,,2013-01-14 23:23:00,
2013-01-14 18:33:00,72.0,62.0,30.17,ESE,105,3.0,4.0,71,-99.99,,,-99.99,,2013-01-14 23:33:00,
2013-01-14 18:43:00,70.0,62.0,30.17,ESE,121,3.0,4.0,75,-99.99,,,-99.99,,2013-01-14 23:43:00,
2013-01-14 18:53:00,69.0,62.0,30.17,ESE,116,4.0,6.0,77,-99.99,,,-99.99,,2013-01-14 23:53:00,
2013-01-14 19:03:00,69.0,62.0,30.17,ESE,116,4.0,6.0,77,-99.99,,,-99.99,,2013-01-15 00:03:00,
2013-01-14 19:12:00,70.0,62.0,30.17,ESE,120,4.0,6.0,75,-99.99,,,-99.99,,2013-01-15 00:12:00,
2013-01-14 19:23:00,70.0,62.0,30.17,ESE,120,4.0,6.0,75,-99.99,,,-99.99,,2013-01-15 00:23:00,
2013-01-14 19:33:00,70.0,63.0,30.17,ESE,116,5.0,11.0,76,-99.99,,,-99.99,,2013-01-15 00:33:00,
2013-01-14 19:43:00,70.0,63.0,30.17,ESE,116,5.0,11.0,76,-99.99,,,-99.99,,2013-01-15 00:43:00,
2013-01-14 19:53:00,71.0,64.0,30.17,ESE,105,5.0,7.0,77,-99.99,,,-99.99,,2013-01-15 00:53:00,
2013-01-14 20:02:00,71.0,63.0,30.18,East,100,5.0,6.0,76,-99.99,,,-99.99,,2013-01-15 01:02:00,
2013-01-14 20:12:00,71.0,63.0,30.18,East,100,5.0,6.0,76,-99.99,,,-99.99,,2013-01-15 01:12:00,
2013-01-14 20:23:00,70.0,63.0,30.18,ESE,112,5.0,7.0,78,-99.99,,,-99.99,,2013-01-15 01:23:00,
2013-01-14 20:32:00,70.0,63.0,30.17,ESE,112,5.0,8.0,79,-99.99,,,-99.99,,2013-01-15 01:32:00,
2013-01-14 20:43:00,70.0,63.0,30.17,ESE,112,5.0,8.0,79,-99.99,,,-99.99,,2013-01-15 01:43:00,
2013-01-14 20:53:00,70.0,63.0,30.17,ESE,107,6.0,9.0,80,-99.99,,,-99.99,,2013-01-15 01:53:00,
2013-01-14 21:03:00,69.0,63.0,30.17,ESE,114,6.0,8.0,81,-99.99,,,-99.99,,2013-01-15 02:03:00,
2013-01-14 21:12:00,69.0,63.0,30.17,ESE,114,6.0,8.0,81,-99.99,,,-99.99,,2013-01-15 02:12:00,
2013-01-14 21:23:00,69.0,63.0,30.17,ESE,113,6.0,9.0,81,-99.99,,,-99.99,,2013-01-15 02:23:00,
2013-01-14 21:33:00,69.0,63.0,30.17,ESE,113,6.0,9.0,81,-99.99,,,-99.99,,2013-01-15 02:33:00,
2013-01-14 21:42:00,68.0,63.0,30.17,ESE,113,6.0,9.0,83,-99.99,,,-99.99,,2013-01-15 02:42:00,
2013-01-14 21:53:00,68.0,63.0,30.17,ESE,110,5.0,9.0,84,-99.99,,,-99.99,,2013-01-15 02:53:00,
2013-01-14 22:03:00,67.0,63.0,30.18,ESE,111,5.0,7.0,85,-99.99,,,-99.99,,2013-01-15 03:03:00,
2013-01-14 22:12:00,67.0,63.0,30.18,ESE,107,5.0,7.0,86,-99.99,,,-99.99,,2013-01-15 03:12:00,
2013-01-14 22:22:00,67.0,63.0,30.18,ESE,107,5.0,7.0,86,-99.99,,,-99.99,,2013-01-15 03:22:00,
2013-01-14 22:33:00,66.0,62.0,30.17,ESE,108,5.0,7.0,86,-99.99,,,-99.99,,2013-01-15 03:33:00,
2013-01-14 22:42:00,66.0,62.0,30.18,East,99,5.0,7.0,87,-99.99,,,-99.99,,2013-01-15 03:42:00,
2013-01-14 22:53:00,66.0,62.0,30.18,East,99,5.0,7.0,87,-99.99,,,-99.99,,2013-01-15 03:53:00,
2013-01-14 23:03:00,66.0,62.0,30.17,East,96,4.0,6.0,88,-99.99,,,-99.99,,2013-01-15 04:03:00,
2013-01-14 23:12:00,66.0,62.0,30.17,East,96,4.0,6.0,88,-99.99,,,-99.99,,2013-01-15 04:12:00,
2013-01-14 23:22:00,65.0,62.0,30.17,ESE,110,4.0,5.0,89,-99.99,,,-99.99,,2013-01-15 04:22:00,
2013-01-14 23:32:00,65.0,62.0,30.17,ESE,110,4.0,5.0,89,-99.99,,,-99.99,,2013-01-15 04:32:00,
2013-01-14 23:42:00,66.0,63.0,30.17,ESE,122,5.0,9.0,89,-99.99,,,-99.99,,2013-01-15 04:42:00,
2013-01-14 23:52:00,66.0,63.0,30.17,SE,124,3.0,5.0,89,-99.99,,,-99.99,,2013-01-15 04:52:00,